Time;durP1;ratioP1;P1;durP2;ratioP2;P2;SDS_P1;SDS_P2;PMS_P1;PMS_P2;Temp;Humidity;BMP_temperature;BMP_pressure;BME280_temperature;BME280_humidity;BME280_pressure;Samples;Min_cycle;Max_cycle;Signal;HPM_P1;HPM_P2
2024/01/26 00:01:42;;;;;;;;;;;;;;;;;;5095695;28;19919;-90
2024/01/26 00:04:08;;;;;;;;;;;;;;;;;;5089070;27;19926;-90
2024/01/26 00:06:34;;;;;;;;;;;;;;;;;;5095933;28;20512;-88
2024/01/26 00:09:00;;;;;;;;;;;;;;;;;;5085794;28;19927;-90
2024/01/26 00:11:26;;;;;;;;;;;;;;;;;;5112484;28;19923;-90
2024/01/26 00:13:52;;;;;;;;;;;;;;;;;;5107989;28;19926;-89
2024/01/26 00:16:18;;;;;;;;;;;;;;;;;;5092730;28;19960;-88
2024/01/26 00:18:44;;;;;;;;;;;;;;;;;;5090973;28;20360;-90
2024/01/26 00:21:10;;;;;;;;;;;;;;;;;;5109993;28;19987;-89
2024/01/26 00:23:36;;;;;;;;;;;;;;;;;;5107487;28;19946;-90
2024/01/26 00:26:02;;;;;;;;;;;;;;;;;;5111199;28;20016;-88
2024/01/26 00:28:28;;;;;;;;;;;;;;;;;;5078567;28;19977;-90
2024/01/26 00:30:54;;;;;;;;;;;;;;;;;;5114600;28;19941;-89
2024/01/26 00:33:20;;;;;;;;;;;;;;;;;;5115899;28;19923;-90
2024/01/26 00:35:46;;;;;;;;;;;;;;;;;;5097964;28;20394;-89
2024/01/26 00:38:14;;;;;;;;;;;;;;;;;;5094470;28;19919;-87
2024/01/26 00:40:40;;;;;;;;;;;;;;;;;;5109713;28;19923;-87
2024/01/26 00:43:06;;;;;;;;;;;;;;;;;;5116024;28;19926;-87
2024/01/26 00:45:32;;;;;;;;;;;;;;;;;;5114845;28;19933;-87
2024/01/26 00:47:58;;;;;;;;;;;;;;;;;;5115995;28;19920;-87
2024/01/26 00:50:24;;;;;;;;;;;;;;;;;;5114159;28;19968;-88
2024/01/26 00:52:50;;;;;;;;;;;;;;;;;;5099169;28;19967;-89
2024/01/26 00:55:16;;;;;;;;;;;;;;;;;;5115001;28;20006;-88
2024/01/26 00:57:42;;;;;;;;;;;;;;;;;;5110277;28;19920;-88
2024/01/26 01:00:08;;;;;;;;;;;;;;;;;;5092419;28;19920;-88
2024/01/26 01:02:34;;;;;;;;;;;;;;;;;;5095083;28;19969;-87
2024/01/26 01:05:00;;;;;;;;;;;;;;;;;;5095278;28;19924;-89
2024/01/26 01:07:27;;;;;;;;;;;;;;;;;;5114397;28;19920;-88
2024/01/26 01:09:53;;;;;;;;;;;;;;;;;;5115332;28;20349;-88
2024/01/26 01:12:18;;;;;;;;;;;;;;;;;;5085938;28;19944;-88
2024/01/26 01:14:47;;;;;;;;;;;;;;;;;;5115594;28;19969;-87
2024/01/26 01:17:13;;;;;;;;;;;;;;;;;;5115325;28;19968;-87
2024/01/26 01:19:38;;;;;;;;;;;;;;;;;;5115030;28;19927;-87
2024/01/26 01:22:05;;;;;;;;;;;;;;;;;;5100310;28;19968;-86
2024/01/26 01:24:31;;;;;;;;;;;;;;;;;;5102110;27;19958;-87
2024/01/26 01:26:57;;;;;;;;;;;;;;;;;;5112184;28;19958;-88
2024/01/26 01:29:23;;;;;;;;;;;;;;;;;;5112069;27;19919;-88
2024/01/26 01:31:49;;;;;;;;;;;;;;;;;;5101796;27;19919;-88
2024/01/26 01:34:15;;;;;;;;;;;;;;;;;;5101558;27;19919;-86
2024/01/26 01:36:41;;;;;;;;;;;;;;;;;;5118143;27;20044;-88
2024/01/26 01:39:07;;;;;;;;;;;;;;;;;;5118719;27;19919;-88
2024/01/26 01:41:33;;;;;;;;;;;;;;;;;;5118793;27;19919;-89
2024/01/26 01:43:59;;;;;;;;;;;;;;;;;;5096047;27;19926;-89
2024/01/26 01:46:26;;;;;;;;;;;;;;;;;;5101416;27;19919;-88
2024/01/26 01:48:52;;;;;;;;;;;;;;;;;;5087719;27;19920;-86
2024/01/26 01:51:18;;;;;;;;;;;;;;;;;;5117545;27;20362;-86
2024/01/26 01:53:44;;;;;;;;;;;;;;;;;;5118452;27;19931;-89
2024/01/26 01:56:10;;;;;;;;;;;;;;;;;;5118327;27;19923;-89
2024/01/26 01:58:36;;;;;;;;;;;;;;;;;;5101100;27;19924;-89
2024/01/26 02:01:02;;;;;;;;;;;;;;;;;;5118095;27;19919;-89
2024/01/26 02:03:28;;;;;;;;;;;;;;;;;;5101468;27;19926;-89
2024/01/26 02:05:54;;;;;;;;;;;;;;;;;;5117223;27;19920;-89
2024/01/26 02:08:20;;;;;;;;;;;;;;;;;;5115283;27;19923;-87
2024/01/26 02:10:46;;;;;;;;;;;;;;;;;;5118464;27;19942;-89
2024/01/26 02:13:12;;;;;;;;;;;;;;;;;;5118403;27;19919;-88
2024/01/26 02:15:38;;;;;;;;;;;;;;;;;;5117617;27;19999;-88
2024/01/26 02:18:04;;;;;;;;;;;;;;;;;;5097931;28;19967;-88
2024/01/26 02:20:30;;;;;;;;;;;;;;;;;;5094412;27;19927;-89
2024/01/26 02:22:56;;;;;;;;;;;;;;;;;;5118078;27;19966;-89
2024/01/26 02:25:21;;;;;;;;;;;;;;;;;;5116503;27;19919;-84
2024/01/26 02:27:48;;;;;;;;;;;;;;;;;;5106112;27;20009;-89
2024/01/26 02:30:14;;;;;;;;;;;;;;;;;;5101134;27;19919;-88
2024/01/26 02:32:39;;;;;;;;;;;;;;;;;;5117642;27;20426;-88
2024/01/26 02:35:05;;;;;;;;;;;;;;;;;;5116805;27;20226;-87
2024/01/26 02:37:31;;;;;;;;;;;;;;;;;;5108297;28;19919;-86
2024/01/26 02:39:57;;;;;;;;;;;;;;;;;;5112827;27;19919;-87
2024/01/26 02:42:23;;;;;;;;;;;;;;;;;;5093087;28;19970;-86
2024/01/26 02:44:49;;;;;;;;;;;;;;;;;;5084640;28;19920;-88
2024/01/26 02:47:15;;;;;;;;;;;;;;;;;;5117664;27;19926;-88
2024/01/26 02:49:44;;;;;;;;;;;;;;;;;;5100185;27;20352;-87
2024/01/26 02:52:10;;;;;;;;;;;;;;;;;;5099841;27;20356;-89
2024/01/26 02:54:36;;;;;;;;;;;;;;;;;;5099888;27;19930;-89
2024/01/26 02:57:02;;;;;;;;;;;;;;;;;;5097411;28;19920;-89
2024/01/26 02:59:28;;;;;;;;;;;;;;;;;;5109315;28;20372;-89
2024/01/26 03:01:54;;;;;;;;;;;;;;;;;;5096903;28;19969;-90
2024/01/26 03:04:20;;;;;;;;;;;;;;;;;;5080451;28;19924;-90
2024/01/26 03:06:46;;;;;;;;;;;;;;;;;;5078093;28;19930;-89
2024/01/26 03:09:12;;;;;;;;;;;;;;;;;;5097420;28;20320;-88
2024/01/26 03:11:38;;;;;;;;;;;;;;;;;;5079948;28;19920;-89
2024/01/26 03:14:05;;;;;;;;;;;;;;;;;;5096847;28;19920;-90
2024/01/26 03:16:31;;;;;;;;;;;;;;;;;;5099114;27;20048;-89
2024/01/26 03:18:57;;;;;;;;;;;;;;;;;;5117298;27;19920;-89
2024/01/26 03:21:23;;;;;;;;;;;;;;;;;;5109770;27;19942;-87
2024/01/26 03:23:49;;;;;;;;;;;;;;;;;;5099735;27;19923;-90
2024/01/26 03:26:15;;;;;;;;;;;;;;;;;;5099960;27;19923;-88
2024/01/26 03:28:41;;;;;;;;;;;;;;;;;;5116239;27;19926;-90
2024/01/26 03:31:07;;;;;;;;;;;;;;;;;;5113124;28;19970;-87
2024/01/26 03:33:32;;;;;;;;;;;;;;;;;;5079242;28;19920;-87
2024/01/26 03:35:58;;;;;;;;;;;;;;;;;;5078362;28;19926;-90
2024/01/26 03:38:24;;;;;;;;;;;;;;;;;;5096700;28;20397;-89
2024/01/26 03:40:50;;;;;;;;;;;;;;;;;;5096006;28;20426;-88
2024/01/26 03:43:16;;;;;;;;;;;;;;;;;;5096582;28;19920;-90
2024/01/26 03:45:42;;;;;;;;;;;;;;;;;;5095080;28;19920;-90
2024/01/26 03:48:08;;;;;;;;;;;;;;;;;;5092251;27;20060;-86
2024/01/26 03:50:34;;;;;;;;;;;;;;;;;;5115070;27;19992;-85
2024/01/26 03:53:00;;;;;;;;;;;;;;;;;;5105636;28;19924;-90
2024/01/26 03:55:26;;;;;;;;;;;;;;;;;;5096061;28;20361;-90
2024/01/26 03:57:52;;;;;;;;;;;;;;;;;;5085433;27;20263;-90
2024/01/26 04:00:18;;;;;;;;;;;;;;;;;;5116127;28;19919;-90
2024/01/26 04:02:44;;;;;;;;;;;;;;;;;;5116142;27;20249;-90
2024/01/26 04:05:10;;;;;;;;;;;;;;;;;;5115011;27;19988;-88
2024/01/26 04:07:38;;;;;;;;;;;;;;;;;;5113145;28;19920;-90
2024/01/26 04:10:04;;;;;;;;;;;;;;;;;;5099881;28;19919;-89
2024/01/26 04:12:30;;;;;;;;;;;;;;;;;;5107860;28;19932;-90
2024/01/26 04:14:56;;;;;;;;;;;;;;;;;;5095281;28;20039;-89
2024/01/26 04:17:22;;;;;;;;;;;;;;;;;;5110144;28;19920;-90
2024/01/26 04:19:48;;;;;;;;;;;;;;;;;;5098241;28;20420;-85
2024/01/26 04:22:13;;;;;;;;;;;;;;;;;;5115701;28;20394;-89
2024/01/26 04:24:39;;;;;;;;;;;;;;;;;;5098825;28;19967;-86
2024/01/26 04:27:05;;;;;;;;;;;;;;;;;;5115551;28;20372;-89
2024/01/26 04:29:31;;;;;;;;;;;;;;;;;;5102644;28;20013;-89
2024/01/26 04:31:58;;;;;;;;;;;;;;;;;;5094698;28;19926;-87
2024/01/26 04:34:24;;;;;;;;;;;;;;;;;;5115331;28;19919;-89
2024/01/26 04:36:50;;;;;;;;;;;;;;;;;;5111814;28;19923;-89
2024/01/26 04:39:16;;;;;;;;;;;;;;;;;;5095738;28;19927;-89
2024/01/26 04:41:42;;;;;;;;;;;;;;;;;;5104384;28;19919;-88
2024/01/26 04:44:08;;;;;;;;;;;;;;;;;;5096913;28;19958;-90
2024/01/26 04:46:34;;;;;;;;;;;;;;;;;;5098574;28;19920;-87
2024/01/26 04:49:00;;;;;;;;;;;;;;;;;;5081404;28;19924;-88
2024/01/26 04:51:26;;;;;;;;;;;;;;;;;;5099050;28;19969;-90
2024/01/26 04:53:52;;;;;;;;;;;;;;;;;;5092724;28;19958;-90
2024/01/26 04:56:20;;;;;;;;;;;;;;;;;;5095488;28;19920;-90
2024/01/26 04:58:46;;;;;;;;;;;;;;;;;;5099111;27;20007;-88
2024/01/26 05:01:12;;;;;;;;;;;;;;;;;;5091838;28;20010;-89
2024/01/26 05:03:38;;;;;;;;;;;;;;;;;;5099429;28;20387;-90
2024/01/26 05:06:06;;;;;;;;;;;;;;;;;;5097470;28;20831;-90
2024/01/26 05:08:32;;;;;;;;;;;;;;;;;;5118175;27;20395;-90
2024/01/26 05:10:58;;;;;;;;;;;;;;;;;;5119242;27;19919;-90
2024/01/26 05:13:24;;;;;;;;;;;;;;;;;;5107921;28;19985;-88
2024/01/26 05:15:50;;;;;;;;;;;;;;;;;;5081391;28;20391;-89
2024/01/26 05:18:16;;;;;;;;;;;;;;;;;;5099204;28;19965;-88
2024/01/26 05:20:42;;;;;;;;;;;;;;;;;;5097980;28;20415;-89
2024/01/26 05:23:08;;;;;;;;;;;;;;;;;;5093452;27;19978;-87
2024/01/26 05:25:34;;;;;;;;;;;;;;;;;;5100398;28;19920;-90
2024/01/26 05:28:00;;;;;;;;;;;;;;;;;;5084743;27;20549;-89
2024/01/26 05:30:26;;;;;;;;;;;;;;;;;;5118993;27;19925;-88
2024/01/26 05:32:52;;;;;;;;;;;;;;;;;;5118552;27;19931;-89
2024/01/26 05:35:18;;;;;;;;;;;;;;;;;;5117822;27;19919;-89
2024/01/26 05:37:44;;;;;;;;;;;;;;;;;;5102427;27;19919;-89
2024/01/26 05:40:10;;;;;;;;;;;;;;;;;;5118759;27;20001;-90
2024/01/26 05:42:36;;;;;;;;;;;;;;;;;;5092780;28;19967;-88
2024/01/26 05:45:02;;;;;;;;;;;;;;;;;;5080824;28;19919;-89
2024/01/26 05:47:27;;;;;;;;;;;;;;;;;;5081573;28;19957;-89
2024/01/26 05:49:53;;;;;;;;;;;;;;;;;;5097081;28;19920;-89
2024/01/26 05:52:20;;;;;;;;;;;;;;;;;;5096452;28;20391;-90
2024/01/26 05:54:46;;;;;;;;;;;;;;;;;;5100829;27;20352;-90
2024/01/26 05:57:12;;;;;;;;;;;;;;;;;;5101465;27;19976;-90
2024/01/26 05:59:38;;;;;;;;;;;;;;;;;;5118704;27;19919;-90
2024/01/26 06:02:04;;;;;;;;;;;;;;;;;;5117861;27;19926;-88
2024/01/26 06:04:31;;;;;;;;;;;;;;;;;;5101581;27;20006;-90
2024/01/26 06:06:57;;;;;;;;;;;;;;;;;;5099434;27;19919;-90
2024/01/26 06:09:23;;;;;;;;;;;;;;;;;;5101423;27;19925;-89
2024/01/26 06:11:49;;;;;;;;;;;;;;;;;;5098866;27;19919;-85
2024/01/26 06:14:15;;;;;;;;;;;;;;;;;;5082682;28;19919;-88
2024/01/26 06:16:41;;;;;;;;;;;;;;;;;;5095306;27;19919;-89
2024/01/26 06:19:07;;;;;;;;;;;;;;;;;;5118147;27;20060;-89
2024/01/26 06:21:33;;;;;;;;;;;;;;;;;;5100291;27;19920;-89
2024/01/26 06:23:59;;;;;;;;;;;;;;;;;;5117783;27;20008;-90
2024/01/26 06:26:25;;;;;;;;;;;;;;;;;;5118533;27;19928;-86
2024/01/26 06:28:51;;;;;;;;;;;;;;;;;;5117705;27;19926;-85
2024/01/26 06:31:17;;;;;;;;;;;;;;;;;;5117600;27;19923;-84
2024/01/26 06:33:43;;;;;;;;;;;;;;;;;;5117826;27;19926;-84
2024/01/26 06:36:09;;;;;;;;;;;;;;;;;;5097735;27;19919;-84
2024/01/26 06:38:40;;;;;;;;;;;;;;;;;;5080400;28;19920;-85
2024/01/26 06:41:06;;;;;;;;;;;;;;;;;;5080144;28;19924;-85
2024/01/26 06:43:31;;;;;;;;;;;;;;;;;;5094452;28;19920;-85
2024/01/26 06:45:57;;;;;;;;;;;;;;;;;;5079804;28;19926;-86
2024/01/26 06:48:26;;;;;;;;;;;;;;;;;;5114246;28;19968;-86
2024/01/26 06:50:52;;;;;;;;;;;;;;;;;;5096806;28;19926;-85
2024/01/26 06:53:18;;;;;;;;;;;;;;;;;;5079899;28;19919;-85
2024/01/26 06:55:44;;;;;;;;;;;;;;;;;;5080183;28;19919;-84
2024/01/26 06:58:09;;;;;;;;;;;;;;;;;;5094723;28;20414;-84
2024/01/26 07:00:35;;;;;;;;;;;;;;;;;;5096520;28;19927;-84
2024/01/26 07:03:01;;;;;;;;;;;;;;;;;;5096521;28;20002;-83
2024/01/26 07:05:27;;;;;;;;;;;;;;;;;;5096005;28;19924;-85
2024/01/26 07:07:54;;;;;;;;;;;;;;;;;;5079386;28;19972;-86
2024/01/26 07:10:20;;;;;;;;;;;;;;;;;;5079421;28;19946;-86
2024/01/26 07:12:46;;;;;;;;;;;;;;;;;;5079614;28;20288;-84
2024/01/26 07:15:12;;;;;;;;;;;;;;;;;;5114773;27;19998;-85
2024/01/26 07:17:38;;;;;;;;;;;;;;;;;;5099541;27;19927;-85
2024/01/26 07:20:04;;;;;;;;;;;;;;;;;;5097477;28;19920;-85
2024/01/26 07:22:30;;;;;;;;;;;;;;;;;;5109351;28;19924;-85
2024/01/26 07:24:56;;;;;;;;;;;;;;;;;;5096197;28;19923;-85
2024/01/26 07:27:22;;;;;;;;;;;;;;;;;;5078817;28;20015;-85
2024/01/26 07:29:48;;;;;;;;;;;;;;;;;;5079209;28;19992;-86
2024/01/26 07:32:14;;;;;;;;;;;;;;;;;;5078825;28;19926;-84
2024/01/26 07:34:40;;;;;;;;;;;;;;;;;;5095998;28;19923;-84
2024/01/26 07:37:07;;;;;;;;;;;;;;;;;;5078041;28;19926;-86
2024/01/26 07:39:33;;;;;;;;;;;;;;;;;;5079498;28;19919;-86
2024/01/26 07:41:59;;;;;;;;;;;;;;;;;;5096667;28;19920;-87
2024/01/26 07:44:25;;;;;;;;;;;;;;;;;;5087009;28;19976;-86
2024/01/26 07:46:51;;;;;;;;;;;;;;;;;;5099334;27;20369;-87
2024/01/26 07:49:17;;;;;;;;;;;;;;;;;;5115795;27;19923;-86
2024/01/26 07:51:43;;;;;;;;;;;;;;;;;;5098555;27;19919;-86
2024/01/26 07:54:09;;;;;;;;;;;;;;;;;;5090549;28;19930;-86
2024/01/26 07:56:35;;;;;;;;;;;;;;;;;;5095896;28;19920;-86
2024/01/26 07:59:01;;;;;;;;;;;;;;;;;;5082319;28;19923;-86
2024/01/26 08:01:30;;;;;;;;;;;;;;;;;;5095604;28;20485;-87
2024/01/26 08:03:56;;;;;;;;;;;;;;;;;;5095616;28;19920;-88
2024/01/26 08:06:22;;;;;;;;;;;;;;;;;;5077223;28;20440;-88
2024/01/26 08:08:48;;;;;;;;;;;;;;;;;;5088355;28;19924;-86
2024/01/26 08:11:14;;;;;;;;;;;;;;;;;;5104486;28;19926;-85
2024/01/26 08:13:39;;;;;;;;;;;;;;;;;;5092013;28;19919;-88
2024/01/26 08:16:06;;;;;;;;;;;;;;;;;;5105138;28;19928;-87
2024/01/26 08:18:31;;;;;;;;;;;;;;;;;;5077824;28;19920;-86
2024/01/26 08:20:57;;;;;;;;;;;;;;;;;;5093669;28;19927;-85
2024/01/26 08:23:23;;;;;;;;;;;;;;;;;;5077342;28;20281;-85
2024/01/26 08:25:49;;;;;;;;;;;;;;;;;;5096666;28;20010;-93
2024/01/26 08:28:15;;;;;;;;;;;;;;;;;;5115541;28;19968;-88
2024/01/26 08:30:42;;;;;;;;;;;;;;;;;;5098986;28;20428;-91
2024/01/26 08:33:08;;;;;;;;;;;;;;;;;;5102095;27;19955;-84
2024/01/26 08:35:34;;;;;;;;;;;;;;;;;;5118441;27;19966;-89
2024/01/26 08:38:00;;;;;;;;;;;;;;;;;;5103229;27;19919;-91
2024/01/26 08:40:28;;;;;;;;;;;;;;;;;;5095173;27;20010;-88
2024/01/26 08:42:53;;;;;;;;;;;;;;;;;;5103485;27;20356;-84
2024/01/26 08:45:19;;;;;;;;;;;;;;;;;;5084556;27;19934;-86
2024/01/26 08:47:45;;;;;;;;;;;;;;;;;;5109577;27;19977;-84
2024/01/26 08:50:11;;;;;;;;;;;;;;;;;;5110979;27;19923;-84
2024/01/26 08:52:37;;;;;;;;;;;;;;;;;;5093317;28;19919;-84
2024/01/26 08:55:04;;;;;;;;;;;;;;;;;;5116142;27;19923;-85
2024/01/26 08:57:30;;;;;;;;;;;;;;;;;;5097636;27;19926;-85
2024/01/26 08:59:56;;;;;;;;;;;;;;;;;;5116894;27;19919;-85
2024/01/26 09:02:22;;;;;;;;;;;;;;;;;;5111823;27;19919;-85
2024/01/26 09:04:48;;;;;;;;;;;;;;;;;;5095975;27;20356;-89
2024/01/26 09:07:17;;;;;;;;;;;;;;;;;;5100054;27;20368;-86
2024/01/26 09:09:43;;;;;;;;;;;;;;;;;;5088053;27;19935;-85
2024/01/26 09:12:09;;;;;;;;;;;;;;;;;;5114858;27;20329;-84
2024/01/26 09:14:35;;;;;;;;;;;;;;;;;;5096890;27;19930;-84
2024/01/26 09:17:01;;;;;;;;;;;;;;;;;;5113605;27;19919;-84
2024/01/26 09:19:27;;;;;;;;;;;;;;;;;;5095839;27;19942;-83
2024/01/26 09:21:53;;;;;;;;;;;;;;;;;;5107568;28;19967;-83
2024/01/26 09:24:19;;;;;;;;;;;;;;;;;;5110525;27;19974;-84
2024/01/26 09:26:45;;;;;;;;;;;;;;;;;;5079656;28;19920;-84
2024/01/26 09:29:11;;;;;;;;;;;;;;;;;;5098250;27;19923;-83
2024/01/26 09:31:37;;;;;;;;;;;;;;;;;;5116819;27;19923;-83
2024/01/26 09:34:03;;;;;;;;;;;;;;;;;;5098333;27;19923;-83
2024/01/26 09:36:29;;;;;;;;;;;;;;;;;;5115579;27;20408;-83
2024/01/26 09:38:56;;;;;;;;;;;;;;;;;;5097036;28;20014;-83
2024/01/26 09:41:22;;;;;;;;;;;;;;;;;;5091632;27;19926;-84
2024/01/26 09:43:48;;;;;;;;;;;;;;;;;;5117225;27;19920;-83
2024/01/26 09:46:14;;;;;;;;;;;;;;;;;;5089287;28;19985;-85
2024/01/26 09:48:40;;;;;;;;;;;;;;;;;;5094657;27;19919;-86
2024/01/26 09:51:06;;;;;;;;;;;;;;;;;;5116174;27;20051;-85
2024/01/26 09:53:37;;;;;;;;;;;;;;;;;;5096447;28;19924;-83
2024/01/26 09:56:03;;;;;;;;;;;;;;;;;;5108774;27;19927;-83
2024/01/26 09:58:29;;;;;;;;;;;;;;;;;;5099730;27;19919;-83
2024/01/26 10:00:55;;;;;;;;;;;;;;;;;;5116854;27;20391;-82
2024/01/26 10:03:22;;;;;;;;;;;;;;;;;;5114554;27;19923;-83
2024/01/26 10:05:48;;;;;;;;;;;;;;;;;;5094879;28;20356;-83
2024/01/26 10:08:14;;;;;;;;;;;;;;;;;;5114543;27;19966;-82
2024/01/26 10:10:41;;;;;;;;;;;;;;;;;;5099954;28;20415;-82
2024/01/26 10:13:07;;;;;;;;;;;;;;;;;;5088908;27;19919;-82
2024/01/26 10:15:33;;;;;;;;;;;;;;;;;;5098322;27;19968;-81
2024/01/26 10:18:00;;;;;;;;;;;;;;;;;;5114436;27;19920;-83
2024/01/26 10:20:26;;;;;;;;;;;;;;;;;;5097611;27;19919;-83
2024/01/26 10:22:52;;;;;;;;;;;;;;;;;;5111845;28;20366;-83
2024/01/26 10:25:18;;;;;;;;;;;;;;;;;;5108083;27;19919;-83
2024/01/26 10:27:44;;;;;;;;;;;;;;;;;;5105221;27;19923;-83
2024/01/26 10:30:11;;;;;;;;;;;;;;;;;;5092589;27;19930;-83
2024/01/26 10:32:37;;;;;;;;;;;;;;;;;;5086775;28;20337;-82
2024/01/26 10:35:03;;;;;;;;;;;;;;;;;;5101393;27;19978;-83
2024/01/26 10:37:29;;;;;;;;;;;;;;;;;;5119005;27;19974;-82
2024/01/26 10:39:56;;;;;;;;;;;;;;;;;;5105435;27;19919;-83
2024/01/26 10:42:22;;;;;;;;;;;;;;;;;;5132088;27;19920;-83
2024/01/26 10:44:48;;;;;;;;;;;;;;;;;;5110433;27;19923;-83
2024/01/26 10:47:14;;;;;;;;;;;;;;;;;;5135793;27;19919;-83
2024/01/26 10:49:40;;;;;;;;;;;;;;;;;;5135667;27;20011;-83
2024/01/26 10:52:06;;;;;;;;;;;;;;;;;;5118182;27;19994;-84
2024/01/26 10:54:32;;;;;;;;;;;;;;;;;;5134754;27;19919;-83
2024/01/26 10:56:58;;;;;;;;;;;;;;;;;;5119512;27;19968;-83
2024/01/26 10:59:25;;;;;;;;;;;;;;;;;;5126771;27;20288;-83
2024/01/26 11:01:52;;;;;;;;;;;;;;;;;;5135584;27;19919;-83
2024/01/26 11:04:18;;;;;;;;;;;;;;;;;;5134322;27;19927;-83
2024/01/26 11:06:44;;;;;;;;;;;;;;;;;;5116727;27;19927;-83
2024/01/26 11:09:11;;;;;;;;;;;;;;;;;;5136012;27;19942;-83
2024/01/26 11:11:38;;;;;;;;;;;;;;;;;;5112145;27;19955;-84
2024/01/26 11:14:04;;;;;;;;;;;;;;;;;;5097605;28;19920;-83
2024/01/26 11:16:31;;;;;;;;;;;;;;;;;;5103770;28;19973;-83
2024/01/26 11:19:01;;;;;;;;;;;;;;;;;;5079072;28;19969;-83
2024/01/26 11:21:27;;;;;;;;;;;;;;;;;;5077889;27;19926;-83
2024/01/26 11:23:53;;;;;;;;;;;;;;;;;;5098557;27;19927;-84
2024/01/26 11:26:19;;;;;;;;;;;;;;;;;;5115555;27;19920;-83
2024/01/26 11:28:47;;;;;;;;;;;;;;;;;;5115019;27;19923;-83
2024/01/26 11:31:13;;;;;;;;;;;;;;;;;;5115425;27;19919;-83
2024/01/26 11:33:39;;;;;;;;;;;;;;;;;;5088953;27;19975;-83
2024/01/26 11:36:05;;;;;;;;;;;;;;;;;;5102397;27;19920;-84
2024/01/26 11:38:31;;;;;;;;;;;;;;;;;;5103899;27;19923;-83
2024/01/26 11:41:00;;;;;;;;;;;;;;;;;;5089071;27;20407;-84
2024/01/26 11:43:26;;;;;;;;;;;;;;;;;;5104528;27;19923;-84
2024/01/26 11:45:52;;;;;;;;;;;;;;;;;;5104902;27;20399;-84
2024/01/26 11:48:18;;;;;;;;;;;;;;;;;;5109698;27;20376;-82
2024/01/26 11:50:44;;;;;;;;;;;;;;;;;;5108941;28;19923;-83
2024/01/26 11:53:10;;;;;;;;;;;;;;;;;;5091214;28;19971;-83
2024/01/26 11:55:36;;;;;;;;;;;;;;;;;;5084136;27;19923;-83
2024/01/26 11:58:02;;;;;;;;;;;;;;;;;;5109223;27;19926;-83
2024/01/26 12:00:28;;;;;;;;;;;;;;;;;;5106695;27;19919;-83
2024/01/26 12:02:54;;;;;;;;;;;;;;;;;;5112339;27;19920;-83
2024/01/26 12:05:20;;;;;;;;;;;;;;;;;;5095076;28;19930;-83
2024/01/26 12:07:46;;;;;;;;;;;;;;;;;;5108850;28;19920;-83
2024/01/26 12:10:14;;;;;;;;;;;;;;;;;;5111400;27;19920;-84
2024/01/26 12:12:40;;;;;;;;;;;;;;;;;;5106510;28;19919;-83
2024/01/26 12:15:07;;;;;;;;;;;;;;;;;;5106043;28;19930;-83
2024/01/26 12:17:33;;;;;;;;;;;;;;;;;;5093185;28;19920;-83
2024/01/26 12:19:59;;;;;;;;;;;;;;;;;;5088005;28;19950;-83
2024/01/26 12:22:24;;;;;;;;;;;;;;;;;;5088304;28;19939;-84
2024/01/26 12:24:50;;;;;;;;;;;;;;;;;;5114103;28;19976;-84
2024/01/26 12:27:16;;;;;;;;;;;;;;;;;;5104107;28;19926;-84
2024/01/26 12:29:42;;;;;;;;;;;;;;;;;;5093446;27;20006;-85
2024/01/26 12:32:08;;;;;;;;;;;;;;;;;;5096435;28;19923;-84
2024/01/26 12:34:34;;;;;;;;;;;;;;;;;;5114354;27;19926;-84
2024/01/26 12:37:00;;;;;;;;;;;;;;;;;;5095215;28;19933;-84
2024/01/26 12:39:28;;;;;;;;;;;;;;;;;;5097585;27;19920;-84
2024/01/26 12:41:54;;;;;;;;;;;;;;;;;;5115305;28;19920;-83
2024/01/26 12:44:20;;;;;;;;;;;;;;;;;;5092835;27;20001;-84
2024/01/26 12:46:46;;;;;;;;;;;;;;;;;;5096965;28;19919;-84
2024/01/26 12:49:12;;;;;;;;;;;;;;;;;;5114140;27;19926;-84
2024/01/26 12:51:38;;;;;;;;;;;;;;;;;;5095947;28;19920;-84
2024/01/26 12:54:04;;;;;;;;;;;;;;;;;;5096867;27;19996;-84
2024/01/26 12:56:33;;;;;;;;;;;;;;;;;;5091803;28;20428;-83
2024/01/26 12:59:00;;;;;;;;;;;;;;;;;;5111214;27;20470;-83
2024/01/26 13:01:26;;;;;;;;;;;;;;;;;;5086130;28;19923;-88
2024/01/26 13:03:51;;;;;;;;;;;;;;;;;;5106687;27;19919;-83
2024/01/26 13:06:17;;;;;;;;;;;;;;;;;;5082784;28;20016;-83
2024/01/26 13:08:43;;;;;;;;;;;;;;;;;;5091508;28;19920;-83
2024/01/26 13:11:10;;;;;;;;;;;;;;;;;;5084926;28;20015;-83
2024/01/26 13:13:38;;;;;;;;;;;;;;;;;;5091646;28;19920;-84
2024/01/26 13:16:04;;;;;;;;;;;;;;;;;;5092511;28;19919;-83
2024/01/26 13:18:32;;;;;;;;;;;;;;;;;;5115663;27;19936;-82
2024/01/26 13:20:58;;;;;;;;;;;;;;;;;;5099022;28;20532;-84
2024/01/26 13:23:24;;;;;;;;;;;;;;;;;;5112894;27;19926;-84
2024/01/26 13:25:52;;;;;;;;;;;;;;;;;;5119719;27;19923;-84
2024/01/26 13:28:18;;;;;;;;;;;;;;;;;;5136446;27;19922;-84
2024/01/26 13:30:46;;;;;;;;;;;;;;;;;;5118717;27;19922;-84
2024/01/26 13:33:12;;;;;;;;;;;;;;;;;;5120217;27;19926;-84
2024/01/26 13:35:38;;;;;;;;;;;;;;;;;;5118631;27;19971;-84
2024/01/26 13:38:04;;;;;;;;;;;;;;;;;;5119841;27;19919;-84
2024/01/26 13:40:30;;;;;;;;;;;;;;;;;;5132176;27;19919;-84
2024/01/26 13:42:56;;;;;;;;;;;;;;;;;;5120376;27;19926;-82
2024/01/26 13:45:24;;;;;;;;;;;;;;;;;;5098401;27;20002;-85
2024/01/26 13:47:50;;;;;;;;;;;;;;;;;;5116596;27;20010;-84
2024/01/26 13:50:16;;;;;;;;;;;;;;;;;;5115393;27;20056;-84
2024/01/26 13:52:43;;;;;;;;;;;;;;;;;;5103648;28;19927;-84
2024/01/26 13:55:09;;;;;;;;;;;;;;;;;;5079074;28;19919;-83
2024/01/26 13:57:35;;;;;;;;;;;;;;;;;;5079676;28;19926;-84
2024/01/26 14:00:01;;;;;;;;;;;;;;;;;;5078815;28;20386;-84
2024/01/26 14:02:26;;;;;;;;;;;;;;;;;;5096525;28;19919;-85
2024/01/26 14:04:52;;;;;;;;;;;;;;;;;;5078445;28;20306;-84
2024/01/26 14:07:18;;;;;;;;;;;;;;;;;;5078449;28;19942;-84
2024/01/26 14:09:44;;;;;;;;;;;;;;;;;;5082281;28;19923;-84
2024/01/26 14:12:10;;;;;;;;;;;;;;;;;;5097869;28;20411;-84
2024/01/26 14:14:36;;;;;;;;;;;;;;;;;;5079194;28;19924;-84
2024/01/26 14:17:02;;;;;;;;;;;;;;;;;;5095262;28;19920;-85
2024/01/26 14:19:28;;;;;;;;;;;;;;;;;;5096072;28;19919;-84
2024/01/26 14:21:55;;;;;;;;;;;;;;;;;;5077990;28;19920;-84
2024/01/26 14:24:21;;;;;;;;;;;;;;;;;;5095903;28;20022;-84
2024/01/26 14:26:47;;;;;;;;;;;;;;;;;;5095460;28;19976;-84
2024/01/26 14:29:17;;;;;;;;;;;;;;;;;;5103603;27;19920;-85
2024/01/26 14:31:43;;;;;;;;;;;;;;;;;;5099140;27;19962;-84
2024/01/26 14:34:09;;;;;;;;;;;;;;;;;;5112609;27;19967;-84
2024/01/26 14:36:35;;;;;;;;;;;;;;;;;;5114619;27;19919;-85
2024/01/26 14:39:04;;;;;;;;;;;;;;;;;;5099165;27;19926;-83
2024/01/26 14:41:30;;;;;;;;;;;;;;;;;;5092412;27;19931;-84
2024/01/26 14:43:56;;;;;;;;;;;;;;;;;;5091134;27;19919;-84
2024/01/26 14:46:22;;;;;;;;;;;;;;;;;;5107425;27;19927;-84
2024/01/26 14:48:48;;;;;;;;;;;;;;;;;;5095540;27;19927;-84
2024/01/26 14:51:15;;;;;;;;;;;;;;;;;;5106203;27;19919;-84
2024/01/26 14:53:41;;;;;;;;;;;;;;;;;;5098421;27;19924;-84
2024/01/26 14:56:08;;;;;;;;;;;;;;;;;;5112229;27;19919;-85
2024/01/26 14:58:34;;;;;;;;;;;;;;;;;;5091653;28;20319;-84
2024/01/26 15:00:59;;;;;;;;;;;;;;;;;;5097856;27;19926;-84
2024/01/26 15:03:25;;;;;;;;;;;;;;;;;;5107801;27;19925;-84
2024/01/26 15:05:51;;;;;;;;;;;;;;;;;;5093039;27;19919;-84
2024/01/26 15:08:17;;;;;;;;;;;;;;;;;;5113488;27;19919;-84
2024/01/26 15:10:44;;;;;;;;;;;;;;;;;;5108926;27;19967;-84
2024/01/26 15:13:10;;;;;;;;;;;;;;;;;;5108099;28;19924;-84
2024/01/26 15:15:37;;;;;;;;;;;;;;;;;;5097104;27;19930;-84
2024/01/26 15:18:03;;;;;;;;;;;;;;;;;;5084968;27;19971;-84
2024/01/26 15:20:29;;;;;;;;;;;;;;;;;;5092791;27;19923;-83
2024/01/26 15:22:55;;;;;;;;;;;;;;;;;;5106448;27;20358;-84
2024/01/26 15:25:22;;;;;;;;;;;;;;;;;;5113482;27;20352;-84
2024/01/26 15:27:48;;;;;;;;;;;;;;;;;;5085728;27;19920;-84
2024/01/26 15:30:14;;;;;;;;;;;;;;;;;;5096922;27;19976;-85
2024/01/26 15:32:40;;;;;;;;;;;;;;;;;;5113964;27;20364;-83
2024/01/26 15:35:06;;;;;;;;;;;;;;;;;;5089522;28;19924;-84
2024/01/26 15:37:32;;;;;;;;;;;;;;;;;;5104643;27;19951;-83
2024/01/26 15:39:58;;;;;;;;;;;;;;;;;;5108511;28;19926;-83
2024/01/26 15:42:23;;;;;;;;;;;;;;;;;;5094594;27;19919;-85
2024/01/26 15:44:49;;;;;;;;;;;;;;;;;;5114164;27;20413;-88
2024/01/26 15:47:16;;;;;;;;;;;;;;;;;;5112493;27;19982;-87
2024/01/26 15:49:42;;;;;;;;;;;;;;;;;;5097670;27;20323;-84
2024/01/26 15:52:08;;;;;;;;;;;;;;;;;;5111739;27;19919;-85
2024/01/26 15:54:34;;;;;;;;;;;;;;;;;;5110439;27;20715;-84
2024/01/26 15:57:02;;;;;;;;;;;;;;;;;;5097519;27;19920;-87
2024/01/26 15:59:28;;;;;;;;;;;;;;;;;;5097649;27;19920;-84
2024/01/26 16:01:54;;;;;;;;;;;;;;;;;;5110939;27;19942;-85
2024/01/26 16:04:20;;;;;;;;;;;;;;;;;;5094383;28;19935;-84
2024/01/26 16:06:45;;;;;;;;;;;;;;;;;;5113336;27;19923;-87
2024/01/26 16:09:11;;;;;;;;;;;;;;;;;;5080567;28;19919;-88
2024/01/26 16:11:37;;;;;;;;;;;;;;;;;;5086855;28;19920;-88
2024/01/26 16:14:03;;;;;;;;;;;;;;;;;;5098054;27;20371;-89
2024/01/26 16:16:29;;;;;;;;;;;;;;;;;;5101038;28;19920;-88
2024/01/26 16:18:55;;;;;;;;;;;;;;;;;;5108575;28;19920;-86
2024/01/26 16:21:21;;;;;;;;;;;;;;;;;;5092049;28;19931;-84
2024/01/26 16:23:47;;;;;;;;;;;;;;;;;;5090620;28;19959;-86
2024/01/26 16:26:13;;;;;;;;;;;;;;;;;;5092978;28;19919;-88
2024/01/26 16:28:39;;;;;;;;;;;;;;;;;;5106448;28;19923;-86
2024/01/26 16:31:05;;;;;;;;;;;;;;;;;;5105972;28;19926;-86
2024/01/26 16:33:31;;;;;;;;;;;;;;;;;;5108191;28;19923;-92
2024/01/26 16:35:57;;;;;;;;;;;;;;;;;;5112913;28;20288;-89
2024/01/26 16:38:23;;;;;;;;;;;;;;;;;;5104774;28;19920;-89